Detalii statie AGROKAISER STANESTI [0000198D]

Toti senzorii

Date Temperatura solului [C]Precipitatii [mm]Voltaj baterie [mV]Leaf Wetness [Min]HC Air temperature [C]HC Relative humidity [%]Punctul de roua [C]
medieminmaxsumaultimatimpmedieminmaxmediemediemin
2019-04-19 19:00:00 0 6834 10.39 9.69 10.8 100 10.3 9.6
2019-04-19 20:00:00 0 6738 9.11 8.22 10.04 100 9 8.2
2019-04-19 21:00:00 0 6728 7.67 6.93 8.23 100 7.6 6.9
2019-04-19 22:00:00 0 6708 6.77 6.63 6.95 100 6.7 6.6
2019-04-19 23:00:00 0 6698 6.61 6.21 6.95 100 6.5 6.2
2019-04-20 00:00:00 0 6688 5.74 5.39 6.13 100 5.7 5.3
2019-04-20 01:00:00 0 6678 5.13 5 5.36 100 5.1 5
2019-04-20 02:00:00 0 6678 5.07 4.82 5.23 100 5 4.8
2019-04-20 03:00:00 0 6660 4.82 4.66 5.01 100 4.7 4.6
2019-04-20 04:00:00 0 6650 5.24 5.07 5.4 100 5.2 5
2019-04-20 05:00:00 0 6650 5.14 4.99 5.26 100 5 4.9
2019-04-20 06:00:00 0 6650 4.95 4.74 5.3 100 4.9 4.7
2019-04-20 07:00:00 0 6688 5.26 4.79 5.66 100 5.2 4.7
2019-04-20 08:00:00 0 7294 6.59 5.72 8.3 100 6.5 5.7
2019-04-20 09:00:00 0 7236 10.41 8.81 12.05 99.86 10.3 8.8
2019-04-20 10:00:00 0 7284 12.27 10.91 13.53 97.44 11.8 10.9
2019-04-20 11:00:00 0 7274 14.52 13.2 15.79 83.82 11.7 9.5
2019-04-20 12:00:00 0 7254 14.46 13.39 15.63 67.93 8.4 6.6
2019-04-20 13:00:00 0 7176 13.99 12.69 15.55 70.87 8.6 7.7
2019-04-20 14:00:00 0 7274 14.97 14.31 16.02 67.86 8.9 7.8
2019-04-20 15:00:00 0 7264 13.8 12.97 15 71.29 8.5 7.7
2019-04-20 16:00:00 0 7138 14.25 13.65 14.94 70.49 8.8 8
2019-04-20 17:00:00 0 7080 14.13 13.58 14.84 69.49 8.4 7.6
2019-04-20 18:00:00 0 7060 13.87 13.55 14.13 74 9.1 7.9
2019-04-20 19:00:00 0 6844 12.76 11.55 13.96 76.39 8.5 7.6
2019-04-20 20:00:00 0 6738 10.36 9.98 11.09 90.83 8.8 8.2
2019-04-20 21:00:00 0 6718 9.13 8.79 9.8 94.85 8.2 7.8
2019-04-20 22:00:00 0 6708 8.48 7.44 9.15 93.06 7.3 6.4
2019-04-20 23:00:00 0 6688 7.46 6.97 8.15 95.27 6.6 6.1
2019-04-21 00:00:00 0 6678 6.31 5.93 6.88 98.95 6.1 5.9
2019-04-21 01:00:00 0 6678 5.48 5.16 5.99 100 5.4 5.1
2019-04-21 02:00:00 0 6660 5.29 5.02 5.73 100 5.2 5
2019-04-21 03:00:00 0 6668 5.02 4.55 5.63 99.92 4.9 4.5
2019-04-21 04:00:00 0 6650 4.77 4.08 5.23 100 4.7 4
2019-04-21 05:00:00 0 6650 4.02 2.81 5.11 100 3.9 2.8
2019-04-21 06:00:00 0 6650 3.7 2.97 4.25 100 3.6 2.9
2019-04-21 07:00:00 0 7264 5.13 4.39 6.13 100 5 4.3
2019-04-21 08:00:00 0 7284 7.56 6.06 8.85 100 7.5 6
2019-04-21 09:00:00 0 7274 9.98 8.92 11.31 100 9.9 8.9
2019-04-21 10:00:00 0 7274 12.28 10.9 13.12 97.39 11.8 10.9
2019-04-21 11:00:00 0 7284 13.67 13 14.36 89.9 11.9 10.9
2019-04-21 12:00:00 0 7274 14.59 14.01 15.25 83.98 11.7 11
2019-04-21 13:00:00 0 7284 15.74 15.42 16.17 75.21 11.2 10.6
2019-04-21 14:00:00 0 7284 16.68 16.25 17.02 72.4 11.5 10.8
2019-04-21 15:00:00 0 7176 17.21 16.88 17.79 67.97 11 10.4
2019-04-21 16:00:00 0 7108 17.32 17.01 17.88 68.8 11.4 10.9
2019-04-21 17:00:00 0 7070 17.84 17.67 18.02 64.74 10.9 10.2
2019-04-21 18:00:00 0 6972 17.46 16.84 17.89 66.85 11 10.5